Aureola, Iowa
Current Conditions -  °F | °C
As of 6:35 PM on Monday 24 Nov 2014 (Local Time) from KCCY Reporting Station
Light Snow Light Snow  
Wind Chill:   Ceiling: 1100
Heat Index: 18°   Visibility: 6mi
Dew Point: 12°   Wind: 23mph
Humidity: 79%   Direction: 300°WNW
Pressure: 29.76"   Gusts: NA
Location:  42.9618°N, 92.9184°W
Report Text: KCCY 250035Z AUTO 30020KT 6SM -SN FEW005 OVC011 M08/M11 A2976 RMK AO2
Loading
Personal Weather Stations






























Interactive Weather Map New forecast layout! Learn more

10-Day Weather Forecast

Advertisements
Track Severe Weather on mobile